sensor_id;sensor_type;location;lat;lon;timestamp;pressure;altitude;pressure_sealevel;temperature;humidity
12991;BME280;6560;57.692;11.958;2023-03-23T00:02:06;99534.19;;;14.75;100.00
12991;BME280;6560;57.692;11.958;2023-03-23T00:04:32;99532.31;;;14.73;100.00
12991;BME280;6560;57.692;11.958;2023-03-23T00:06:57;99530.13;;;14.41;100.00
12991;BME280;6560;57.692;11.958;2023-03-23T00:09:26;99422.06;;;13.92;100.00
12991;BME280;6560;57.692;11.958;2023-03-23T00:11:51;99480.31;;;14.33;100.00
12991;BME280;6560;57.692;11.958;2023-03-23T00:14:22;99517.94;;;14.25;100.00
12991;BME280;6560;57.692;11.958;2023-03-23T00:16:49;99353.03;;;13.87;100.00
12991;BME280;6560;57.692;11.958;2023-03-23T00:19:16;99518.81;;;14.24;100.00
12991;BME280;6560;57.692;11.958;2023-03-23T00:21:44;99495.09;;;14.06;100.00
12991;BME280;6560;57.692;11.958;2023-03-23T00:24:14;99524.56;;;13.93;100.00
12991;BME280;6560;57.692;11.958;2023-03-23T00:26:43;99499.31;;;13.60;100.00
12991;BME280;6560;57.692;11.958;2023-03-23T00:29:14;99520.31;;;14.17;100.00
12991;BME280;6560;57.692;11.958;2023-03-23T00:31:42;99506.16;;;14.17;100.00
12991;BME280;6560;57.692;11.958;2023-03-23T00:34:12;99492.50;;;14.51;100.00
12991;BME280;6560;57.692;11.958;2023-03-23T00:36:38;99479.81;;;13.78;100.00
12991;BME280;6560;57.692;11.958;2023-03-23T00:39:08;99500.66;;;14.12;100.00
12991;BME280;6560;57.692;11.958;2023-03-23T00:41:33;99511.50;;;14.39;100.00
12991;BME280;6560;57.692;11.958;2023-03-23T00:44:01;99512.75;;;14.71;100.00
12991;BME280;6560;57.692;11.958;2023-03-23T00:46:27;99511.81;;;14.69;100.00
12991;BME280;6560;57.692;11.958;2023-03-23T00:48:54;99483.13;;;14.59;100.00
12991;BME280;6560;57.692;11.958;2023-03-23T00:51:20;99480.03;;;14.05;100.00
12991;BME280;6560;57.692;11.958;2023-03-23T00:53:46;99504.38;;;15.29;100.00
12991;BME280;6560;57.692;11.958;2023-03-23T00:56:12;99472.94;;;14.93;100.00
12991;BME280;6560;57.692;11.958;2023-03-23T00:58:38;99503.78;;;15.13;100.00
12991;BME280;6560;57.692;11.958;2023-03-23T01:01:05;99491.34;;;15.12;100.00
12991;BME280;6560;57.692;11.958;2023-03-23T01:03:31;99505.41;;;15.34;100.00
12991;BME280;6560;57.692;11.958;2023-03-23T01:05:56;99504.56;;;15.11;100.00
12991;BME280;6560;57.692;11.958;2023-03-23T01:08:23;99482.38;;;15.33;100.00
12991;BME280;6560;57.692;11.958;2023-03-23T01:10:49;99497.84;;;15.21;100.00
12991;BME280;6560;57.692;11.958;2023-03-23T01:13:15;99497.78;;;15.19;100.00
12991;BME280;6560;57.692;11.958;2023-03-23T01:15:42;99487.38;;;17.11;100.00
12991;BME280;6560;57.692;11.958;2023-03-23T01:18:08;99421.78;;;17.15;100.00
12991;BME280;6560;57.692;11.958;2023-03-23T01:20:36;99480.34;;;17.45;100.00
12991;BME280;6560;57.692;11.958;2023-03-23T01:23:02;99476.25;;;17.59;100.00
12991;BME280;6560;57.692;11.958;2023-03-23T01:25:34;99473.06;;;16.23;100.00
12991;BME280;6560;57.692;11.958;2023-03-23T01:28:00;99459.25;;;15.79;100.00
12991;BME280;6560;57.692;11.958;2023-03-23T01:30:25;99474.56;;;15.61;100.00
12991;BME280;6560;57.692;11.958;2023-03-23T01:32:52;99484.97;;;15.55;100.00
12991;BME280;6560;57.692;11.958;2023-03-23T01:35:18;99475.59;;;15.17;100.00
12991;BME280;6560;57.692;11.958;2023-03-23T01:37:44;99443.91;;;14.74;100.00
12991;BME280;6560;57.692;11.958;2023-03-23T01:40:10;99478.03;;;15.85;100.00
12991;BME280;6560;57.692;11.958;2023-03-23T01:42:37;99492.13;;;15.58;100.00
12991;BME280;6560;57.692;11.958;2023-03-23T01:45:29;99486.03;;;15.12;100.00
12991;BME280;6560;57.692;11.958;2023-03-23T01:47:59;99467.44;;;15.36;100.00
12991;BME280;6560;57.692;11.958;2023-03-23T01:50:26;99436.78;;;14.73;100.00
12991;BME280;6560;57.692;11.958;2023-03-23T01:52:56;99436.63;;;15.16;100.00
12991;BME280;6560;57.692;11.958;2023-03-23T01:55:23;99387.63;;;14.59;100.00
12991;BME280;6560;57.692;11.958;2023-03-23T01:57:50;99467.69;;;15.19;100.00
12991;BME280;6560;57.692;11.958;2023-03-23T02:00:16;99465.38;;;15.04;100.00
12991;BME280;6560;57.692;11.958;2023-03-23T02:02:44;99447.88;;;15.09;100.00
12991;BME280;6560;57.692;11.958;2023-03-23T02:05:15;99455.56;;;15.76;100.00
12991;BME280;6560;57.692;11.958;2023-03-23T02:07:45;99429.47;;;14.21;100.00
12991;BME280;6560;57.692;11.958;2023-03-23T02:10:11;99459.31;;;13.95;100.00
12991;BME280;6560;57.692;11.958;2023-03-23T02:12:37;99380.09;;;13.58;100.00
12991;BME280;6560;57.692;11.958;2023-03-23T02:15:03;99452.63;;;14.70;100.00
12991;BME280;6560;57.692;11.958;2023-03-23T02:34:31;99397.38;;;16.68;100.00
12991;BME280;6560;57.692;11.958;2023-03-23T02:37:14;99401.16;;;17.08;100.00
12991;BME280;6560;57.692;11.958;2023-03-23T02:39:50;99384.66;;;17.21;100.00
12991;BME280;6560;57.692;11.958;2023-03-23T02:42:22;99386.94;;;17.39;100.00
12991;BME280;6560;57.692;11.958;2023-03-23T02:44:50;99350.53;;;17.41;100.00
12991;BME280;6560;57.692;11.958;2023-03-23T02:47:20;99330.56;;;17.58;100.00
12991;BME280;6560;57.692;11.958;2023-03-23T02:49:49;99337.28;;;17.77;100.00
12991;BME280;6560;57.692;11.958;2023-03-23T02:52:22;99384.59;;;17.87;100.00
12991;BME280;6560;57.692;11.958;2023-03-23T02:54:50;99337.97;;;17.35;100.00
12991;BME280;6560;57.692;11.958;2023-03-23T02:57:17;99377.94;;;18.04;100.00
12991;BME280;6560;57.692;11.958;2023-03-23T02:59:44;99377.34;;;18.19;100.00
12991;BME280;6560;57.692;11.958;2023-03-23T03:02:34;99375.88;;;18.31;100.00
12991;BME280;6560;57.692;11.958;2023-03-23T03:10:50;99366.72;;;18.20;100.00
12991;BME280;6560;57.692;11.958;2023-03-23T03:13:31;99363.09;;;16.79;100.00
12991;BME280;6560;57.692;11.958;2023-03-23T03:16:21;99368.03;;;18.00;100.00
12991;BME280;6560;57.692;11.958;2023-03-23T03:19:00;99357.78;;;18.18;100.00
12991;BME280;6560;57.692;11.958;2023-03-23T03:21:31;99353.69;;;17.95;100.00
12991;BME280;6560;57.692;11.958;2023-03-23T03:24:00;99296.44;;;17.78;100.00
12991;BME280;6560;57.692;11.958;2023-03-23T03:26:29;99305.34;;;18.19;100.00
12991;BME280;6560;57.692;11.958;2023-03-23T03:28:56;99286.78;;;18.23;100.00
12991;BME280;6560;57.692;11.958;2023-03-23T03:31:26;99353.22;;;17.75;100.00
12991;BME280;6560;57.692;11.958;2023-03-23T03:33:53;99361.34;;;18.58;100.00
12991;BME280;6560;57.692;11.958;2023-03-23T03:36:22;99345.75;;;18.78;100.00
12991;BME280;6560;57.692;11.958;2023-03-23T03:38:50;99352.59;;;18.65;100.00
12991;BME280;6560;57.692;11.958;2023-03-23T03:41:17;99348.00;;;19.01;100.00
12991;BME280;6560;57.692;11.958;2023-03-23T03:43:43;99284.09;;;18.64;100.00
12991;BME280;6560;57.692;11.958;2023-03-23T03:46:08;99292.97;;;18.22;100.00
12991;BME280;6560;57.692;11.958;2023-03-23T03:48:34;99308.81;;;18.55;100.00
12991;BME280;6560;57.692;11.958;2023-03-23T03:51:00;99325.88;;;19.08;100.00
12991;BME280;6560;57.692;11.958;2023-03-23T03:53:27;99337.31;;;19.01;100.00
12991;BME280;6560;57.692;11.958;2023-03-23T03:55:53;99347.28;;;18.26;100.00
12991;BME280;6560;57.692;11.958;2023-03-23T03:58:22;99296.81;;;18.79;100.00
12991;BME280;6560;57.692;11.958;2023-03-23T04:00:48;99314.06;;;18.12;100.00
12991;BME280;6560;57.692;11.958;2023-03-23T04:03:14;99269.44;;;17.64;100.00
12991;BME280;6560;57.692;11.958;2023-03-23T04:05:41;99298.53;;;18.33;100.00
12991;BME280;6560;57.692;11.958;2023-03-23T04:08:07;99288.22;;;18.51;100.00
12991;BME280;6560;57.692;11.958;2023-03-23T04:10:32;99293.88;;;18.65;100.00
12991;BME280;6560;57.692;11.958;2023-03-23T04:12:58;99334.03;;;19.18;100.00
12991;BME280;6560;57.692;11.958;2023-03-23T04:15:25;99281.91;;;18.90;100.00
12991;BME280;6560;57.692;11.958;2023-03-23T04:17:50;99310.44;;;19.43;100.00
12991;BME280;6560;57.692;11.958;2023-03-23T04:20:16;99305.50;;;18.67;100.00
12991;BME280;6560;57.692;11.958;2023-03-23T04:22:47;99297.53;;;19.18;100.00
12991;BME280;6560;57.692;11.958;2023-03-23T04:25:18;99306.88;;;19.41;100.00
12991;BME280;6560;57.692;11.958;2023-03-23T04:27:46;99308.03;;;19.56;100.00
12991;BME280;6560;57.692;11.958;2023-03-23T04:30:22;99311.94;;;19.26;100.00
12991;BME280;6560;57.692;11.958;2023-03-23T04:32:49;99262.34;;;18.92;100.00
12991;BME280;6560;57.692;11.958;2023-03-23T04:35:21;99299.63;;;18.86;100.00
12991;BME280;6560;57.692;11.958;2023-03-23T04:37:48;99297.47;;;18.67;100.00
12991;BME280;6560;57.692;11.958;2023-03-23T04:40:15;99251.53;;;18.40;100.00
12991;BME280;6560;57.692;11.958;2023-03-23T04:42:42;99295.91;;;18.78;100.00
12991;BME280;6560;57.692;11.958;2023-03-23T04:45:13;99298.53;;;18.75;100.00
12991;BME280;6560;57.692;11.958;2023-03-23T04:47:40;99250.94;;;18.54;100.00
12991;BME280;6560;57.692;11.958;2023-03-23T04:50:08;99289.34;;;18.61;100.00
12991;BME280;6560;57.692;11.958;2023-03-23T04:52:35;99283.34;;;18.73;100.00
12991;BME280;6560;57.692;11.958;2023-03-23T04:55:06;99296.84;;;18.80;100.00
12991;BME280;6560;57.692;11.958;2023-03-23T04:57:32;99227.75;;;18.08;100.00
12991;BME280;6560;57.692;11.958;2023-03-23T04:59:58;99300.94;;;18.61;100.00
12991;BME280;6560;57.692;11.958;2023-03-23T05:02:24;99277.53;;;18.50;100.00
12991;BME280;6560;57.692;11.958;2023-03-23T05:04:50;99238.97;;;17.54;100.00
12991;BME280;6560;57.692;11.958;2023-03-23T05:07:16;99284.31;;;18.34;100.00
12991;BME280;6560;57.692;11.958;2023-03-23T05:09:41;99284.53;;;18.43;100.00
12991;BME280;6560;57.692;11.958;2023-03-23T05:12:09;99273.53;;;18.28;100.00
12991;BME280;6560;57.692;11.958;2023-03-23T05:14:35;99242.50;;;17.91;100.00
12991;BME280;6560;57.692;11.958;2023-03-23T05:17:06;99225.91;;;18.04;100.00
12991;BME280;6560;57.692;11.958;2023-03-23T05:19:32;99248.81;;;18.37;100.00
12991;BME280;6560;57.692;11.958;2023-03-23T05:21:58;99270.50;;;18.55;100.00
12991;BME280;6560;57.692;11.958;2023-03-23T05:24:30;99260.31;;;18.34;100.00
12991;BME280;6560;57.692;11.958;2023-03-23T05:26:58;99231.63;;;18.22;100.00
12991;BME280;6560;57.692;11.958;2023-03-23T05:29:24;99228.91;;;18.21;100.00
12991;BME280;6560;57.692;11.958;2023-03-23T05:31:51;99264.97;;;18.44;100.00
12991;BME280;6560;57.692;11.958;2023-03-23T05:34:18;99255.09;;;18.40;100.00
12991;BME280;6560;57.692;11.958;2023-03-23T05:36:44;99227.00;;;18.57;100.00
12991;BME280;6560;57.692;11.958;2023-03-23T05:39:13;99161.22;;;17.71;100.00
12991;BME280;6560;57.692;11.958;2023-03-23T05:41:39;99211.88;;;18.14;100.00
12991;BME280;6560;57.692;11.958;2023-03-23T05:44:05;99163.16;;;16.67;100.00
12991;BME280;6560;57.692;11.958;2023-03-23T05:46:31;99251.69;;;16.60;100.00
12991;BME280;6560;57.692;11.958;2023-03-23T05:48:57;99219.31;;;16.15;100.00
12991;BME280;6560;57.692;11.958;2023-03-23T05:51:23;99291.59;;;16.60;100.00
12991;BME280;6560;57.692;11.958;2023-03-23T05:53:49;99271.69;;;16.47;100.00
12991;BME280;6560;57.692;11.958;2023-03-23T05:56:15;99255.75;;;17.13;100.00
12991;BME280;6560;57.692;11.958;2023-03-23T05:58:40;99272.28;;;16.37;100.00
12991;BME280;6560;57.692;11.958;2023-03-23T06:01:07;99264.91;;;16.58;100.00
12991;BME280;6560;57.692;11.958;2023-03-23T06:03:33;99247.75;;;16.49;100.00
12991;BME280;6560;57.692;11.958;2023-03-23T06:06:04;99279.41;;;16.69;100.00
12991;BME280;6560;57.692;11.958;2023-03-23T06:08:30;99246.41;;;16.31;100.00
12991;BME280;6560;57.692;11.958;2023-03-23T06:10:56;99277.88;;;16.78;100.00
12991;BME280;6560;57.692;11.958;2023-03-23T06:13:22;99205.44;;;16.25;100.00
12991;BME280;6560;57.692;11.958;2023-03-23T06:15:48;99274.22;;;16.74;100.00
12991;BME280;6560;57.692;11.958;2023-03-23T06:18:14;99285.00;;;16.79;100.00
12991;BME280;6560;57.692;11.958;2023-03-23T06:20:40;99273.66;;;16.86;100.00
12991;BME280;6560;57.692;11.958;2023-03-23T06:23:06;99268.25;;;16.83;100.00
12991;BME280;6560;57.692;11.958;2023-03-23T06:25:32;99197.53;;;16.59;100.00
12991;BME280;6560;57.692;11.958;2023-03-23T06:27:57;99206.59;;;16.66;100.00
12991;BME280;6560;57.692;11.958;2023-03-23T06:30:23;99224.31;;;16.65;100.00
12991;BME280;6560;57.692;11.958;2023-03-23T06:32:52;99250.34;;;16.77;100.00
12991;BME280;6560;57.692;11.958;2023-03-23T06:35:17;99238.03;;;16.49;100.00
12991;BME280;6560;57.692;11.958;2023-03-23T06:37:43;99220.84;;;17.02;100.00
12991;BME280;6560;57.692;11.958;2023-03-23T06:40:09;99226.22;;;17.04;100.00
12991;BME280;6560;57.692;11.958;2023-03-23T06:42:36;99220.22;;;17.50;100.00
12991;BME280;6560;57.692;11.958;2023-03-23T06:45:03;99192.53;;;17.43;100.00
12991;BME280;6560;57.692;11.958;2023-03-23T06:47:29;99235.72;;;17.66;100.00
12991;BME280;6560;57.692;11.958;2023-03-23T06:49:58;99232.59;;;17.48;100.00
12991;BME280;6560;57.692;11.958;2023-03-23T06:52:25;99213.75;;;17.39;100.00
12991;BME280;6560;57.692;11.958;2023-03-23T06:54:51;99229.41;;;17.27;100.00
12991;BME280;6560;57.692;11.958;2023-03-23T06:57:17;99187.44;;;16.81;100.00
12991;BME280;6560;57.692;11.958;2023-03-23T06:59:43;99218.66;;;19.43;100.00
12991;BME280;6560;57.692;11.958;2023-03-23T07:02:10;99219.47;;;19.37;100.00
12991;BME280;6560;57.692;11.958;2023-03-23T07:04:43;99182.84;;;19.29;100.00
12991;BME280;6560;57.692;11.958;2023-03-23T07:07:09;99194.69;;;18.92;100.00
12991;BME280;6560;57.692;11.958;2023-03-23T07:09:36;99208.88;;;19.42;100.00
12991;BME280;6560;57.692;11.958;2023-03-23T07:12:02;99188.81;;;19.13;100.00
12991;BME280;6560;57.692;11.958;2023-03-23T07:14:28;99107.25;;;17.42;100.00
12991;BME280;6560;57.692;11.958;2023-03-23T07:16:54;99202.06;;;17.32;100.00
12991;BME280;6560;57.692;11.958;2023-03-23T07:19:19;99134.00;;;16.71;100.00
12991;BME280;6560;57.692;11.958;2023-03-23T07:21:45;99178.63;;;17.18;100.00
12991;BME280;6560;57.692;11.958;2023-03-23T07:24:13;99185.84;;;17.61;100.00
12991;BME280;6560;57.692;11.958;2023-03-23T07:26:41;99181.78;;;17.40;100.00
12991;BME280;6560;57.692;11.958;2023-03-23T07:29:08;99185.97;;;17.67;100.00
12991;BME280;6560;57.692;11.958;2023-03-23T07:31:34;99149.38;;;17.21;100.00
12991;BME280;6560;57.692;11.958;2023-03-23T07:34:00;99179.38;;;17.51;100.00
12991;BME280;6560;57.692;11.958;2023-03-23T07:36:26;99152.72;;;19.40;100.00
12991;BME280;6560;57.692;11.958;2023-03-23T07:38:52;99161.38;;;17.80;100.00
12991;BME280;6560;57.692;11.958;2023-03-23T07:41:19;99181.09;;;17.88;100.00
12991;BME280;6560;57.692;11.958;2023-03-23T07:43:45;99126.44;;;17.65;100.00
12991;BME280;6560;57.692;11.958;2023-03-23T07:46:10;99180.16;;;17.86;100.00
12991;BME280;6560;57.692;11.958;2023-03-23T07:48:36;99168.97;;;18.02;100.00
12991;BME280;6560;57.692;11.958;2023-03-23T07:51:03;99175.06;;;18.42;100.00
12991;BME280;6560;57.692;11.958;2023-03-23T07:53:28;99145.66;;;18.39;100.00
12991;BME280;6560;57.692;11.958;2023-03-23T07:55:54;99143.38;;;18.57;100.00
12991;BME280;6560;57.692;11.958;2023-03-23T07:58:20;99151.13;;;18.94;100.00
12991;BME280;6560;57.692;11.958;2023-03-23T08:00:53;99166.34;;;18.52;100.00
12991;BME280;6560;57.692;11.958;2023-03-23T08:03:19;99162.22;;;18.21;100.00
12991;BME280;6560;57.692;11.958;2023-03-23T08:05:44;99151.41;;;18.13;100.00
12991;BME280;6560;57.692;11.958;2023-03-23T08:08:10;99165.06;;;18.30;100.00
12991;BME280;6560;57.692;11.958;2023-03-23T08:10:36;99162.75;;;18.48;100.00
12991;BME280;6560;57.692;11.958;2023-03-23T08:13:02;99125.06;;;18.30;100.00
12991;BME280;6560;57.692;11.958;2023-03-23T08:15:28;99140.78;;;18.61;100.00
12991;BME280;6560;57.692;11.958;2023-03-23T08:17:54;99144.97;;;19.00;100.00
12991;BME280;6560;57.692;11.958;2023-03-23T08:20:21;99145.00;;;19.01;100.00
12991;BME280;6560;57.692;11.958;2023-03-23T08:22:54;99125.50;;;18.54;100.00
12991;BME280;6560;57.692;11.958;2023-03-23T08:25:21;99113.78;;;18.99;100.00
12991;BME280;6560;57.692;11.958;2023-03-23T08:27:47;99125.97;;;19.39;100.00
12991;BME280;6560;57.692;11.958;2023-03-23T08:30:16;99104.13;;;19.07;100.00
12991;BME280;6560;57.692;11.958;2023-03-23T08:32:42;99137.84;;;19.58;100.00
12991;BME280;6560;57.692;11.958;2023-03-23T08:35:09;99143.03;;;19.47;100.00
12991;BME280;6560;57.692;11.958;2023-03-23T08:37:36;99106.13;;;19.22;100.00
12991;BME280;6560;57.692;11.958;2023-03-23T08:40:03;99141.72;;;19.19;100.00
12991;BME280;6560;57.692;11.958;2023-03-23T08:42:34;99139.97;;;19.21;100.00
12991;BME280;6560;57.692;11.958;2023-03-23T08:45:00;99160.69;;;19.36;100.00
12991;BME280;6560;57.692;11.958;2023-03-23T08:47:26;99137.78;;;18.97;100.00
12991;BME280;6560;57.692;11.958;2023-03-23T08:49:52;99138.00;;;19.09;100.00
12991;BME280;6560;57.692;11.958;2023-03-23T08:52:19;99129.53;;;20.09;100.00
12991;BME280;6560;57.692;11.958;2023-03-23T08:54:45;99077.22;;;18.93;100.00
12991;BME280;6560;57.692;11.958;2023-03-23T08:57:13;99125.59;;;18.59;100.00
12991;BME280;6560;57.692;11.958;2023-03-23T08:59:40;99134.66;;;18.68;100.00
12991;BME280;6560;57.692;11.958;2023-03-23T09:02:09;99114.69;;;19.58;100.00
12991;BME280;6560;57.692;11.958;2023-03-23T09:04:38;99089.38;;;21.02;100.00
12991;BME280;6560;57.692;11.958;2023-03-23T09:07:04;99102.28;;;20.42;100.00
12991;BME280;6560;57.692;11.958;2023-03-23T09:09:30;99054.97;;;20.42;100.00
12991;BME280;6560;57.692;11.958;2023-03-23T09:11:55;99020.31;;;20.54;100.00
12991;BME280;6560;57.692;11.958;2023-03-23T09:14:21;98980.13;;;20.56;100.00
12991;BME280;6560;57.692;11.958;2023-03-23T09:16:46;99022.06;;;19.62;100.00
12991;BME280;6560;57.692;11.958;2023-03-23T09:19:12;99084.03;;;20.04;100.00
12991;BME280;6560;57.692;11.958;2023-03-23T09:21:38;99067.66;;;19.77;100.00
12991;BME280;6560;57.692;11.958;2023-03-23T09:24:04;99084.50;;;21.83;100.00
12991;BME280;6560;57.692;11.958;2023-03-23T09:26:30;99095.16;;;19.65;100.00
12991;BME280;6560;57.692;11.958;2023-03-23T09:28:56;99042.19;;;19.35;100.00
12991;BME280;6560;57.692;11.958;2023-03-23T09:31:22;99035.63;;;19.80;100.00
12991;BME280;6560;57.692;11.958;2023-03-23T09:33:49;99026.84;;;19.96;100.00
12991;BME280;6560;57.692;11.958;2023-03-23T09:36:18;99073.00;;;20.58;100.00
12991;BME280;6560;57.692;11.958;2023-03-23T09:38:46;99077.38;;;20.50;100.00
12991;BME280;6560;57.692;11.958;2023-03-23T09:44:31;99077.31;;;19.64;100.00
12991;BME280;6560;57.692;11.958;2023-03-23T09:47:04;99081.94;;;19.77;100.00
12991;BME280;6560;57.692;11.958;2023-03-23T09:49:45;99053.91;;;18.82;100.00
12991;BME280;6560;57.692;11.958;2023-03-23T09:52:15;99020.09;;;18.29;100.00
12991;BME280;6560;57.692;11.958;2023-03-23T09:54:51;99078.16;;;18.97;100.00
12991;BME280;6560;57.692;11.958;2023-03-23T10:00:12;99079.78;;;19.46;100.00
12991;BME280;6560;57.692;11.958;2023-03-23T10:02:48;99063.56;;;20.08;100.00
12991;BME280;6560;57.692;11.958;2023-03-23T10:05:31;99084.34;;;19.56;100.00
12991;BME280;6560;57.692;11.958;2023-03-23T10:07:59;99034.53;;;19.61;100.00
12991;BME280;6560;57.692;11.958;2023-03-23T10:15:57;99057.09;;;19.86;100.00
12991;BME280;6560;57.692;11.958;2023-03-23T10:18:36;99044.59;;;19.85;100.00
12991;BME280;6560;57.692;11.958;2023-03-23T10:21:02;99017.56;;;19.59;100.00
12991;BME280;6560;57.692;11.958;2023-03-23T10:27:06;99037.13;;;19.55;100.00
12991;BME280;6560;57.692;11.958;2023-03-23T10:29:37;99006.88;;;19.59;100.00
12991;BME280;6560;57.692;11.958;2023-03-23T10:32:38;99036.25;;;19.58;100.00
12991;BME280;6560;57.692;11.958;2023-03-23T10:35:11;99019.34;;;19.59;100.00
12991;BME280;6560;57.692;11.958;2023-03-23T10:37:42;99022.50;;;20.06;100.00
12991;BME280;6560;57.692;11.958;2023-03-23T10:40:15;99023.81;;;20.46;100.00
12991;BME280;6560;57.692;11.958;2023-03-23T10:42:42;99025.34;;;20.21;100.00
12991;BME280;6560;57.692;11.958;2023-03-23T10:47:53;99036.97;;;20.26;100.00
12991;BME280;6560;57.692;11.958;2023-03-23T10:50:28;99027.75;;;19.97;100.00
12991;BME280;6560;57.692;11.958;2023-03-23T10:52:56;99026.13;;;20.11;100.00
12991;BME280;6560;57.692;11.958;2023-03-23T10:55:23;99037.50;;;20.87;100.00
12991;BME280;6560;57.692;11.958;2023-03-23T10:58:05;99003.94;;;20.22;100.00
12991;BME280;6560;57.692;11.958;2023-03-23T11:00:31;98983.50;;;22.27;100.00
12991;BME280;6560;57.692;11.958;2023-03-23T11:03:01;99012.13;;;22.91;100.00
12991;BME280;6560;57.692;11.958;2023-03-23T11:05:44;99009.44;;;22.33;100.00
12991;BME280;6560;57.692;11.958;2023-03-23T11:08:16;99028.56;;;20.85;100.00
12991;BME280;6560;57.692;11.958;2023-03-23T11:10:50;99021.25;;;19.69;100.00
12991;BME280;6560;57.692;11.958;2023-03-23T11:13:18;99006.34;;;19.97;100.00
12991;BME280;6560;57.692;11.958;2023-03-23T11:15:46;98989.63;;;21.63;100.00
12991;BME280;6560;57.692;11.958;2023-03-23T11:20:43;99027.63;;;19.84;100.00
12991;BME280;6560;57.692;11.958;2023-03-23T11:23:28;99021.91;;;19.48;100.00
12991;BME280;6560;57.692;11.958;2023-03-23T11:28:28;99017.22;;;19.33;100.00
12991;BME280;6560;57.692;11.958;2023-03-23T11:30:55;99003.72;;;18.59;100.00
12991;BME280;6560;57.692;11.958;2023-03-23T11:33:22;99026.16;;;18.72;100.00
12991;BME280;6560;57.692;11.958;2023-03-23T11:35:52;99005.72;;;18.74;100.00
12991;BME280;6560;57.692;11.958;2023-03-23T11:38:21;99008.56;;;22.57;100.00
12991;BME280;6560;57.692;11.958;2023-03-23T11:40:49;99003.38;;;24.41;100.00
12991;BME280;6560;57.692;11.958;2023-03-23T11:43:21;99018.75;;;19.15;100.00
12991;BME280;6560;57.692;11.958;2023-03-23T11:46:36;99022.59;;;19.35;100.00
12991;BME280;6560;57.692;11.958;2023-03-23T11:49:08;99021.25;;;19.04;100.00
12991;BME280;6560;57.692;11.958;2023-03-23T11:54:20;99024.13;;;19.16;100.00
12991;BME280;6560;57.692;11.958;2023-03-23T11:56:49;98974.78;;;18.31;100.00
12991;BME280;6560;57.692;11.958;2023-03-23T11:59:18;98992.88;;;18.52;100.00
12991;BME280;6560;57.692;11.958;2023-03-23T12:08:02;99035.25;;;18.30;100.00
12991;BME280;6560;57.692;11.958;2023-03-23T12:13:16;99029.19;;;18.41;100.00
12991;BME280;6560;57.692;11.958;2023-03-23T12:24:18;98990.38;;;18.07;100.00
12991;BME280;6560;57.692;11.958;2023-03-23T12:32:23;99083.28;;;24.41;100.00
12991;BME280;6560;57.692;11.958;2023-03-23T12:42:36;98996.22;;;29.04;100.00
12991;BME280;6560;57.692;11.958;2023-03-23T12:47:42;99023.22;;;26.57;100.00
12991;BME280;6560;57.692;11.958;2023-03-23T12:50:31;99036.06;;;25.02;100.00
12991;BME280;6560;57.692;11.958;2023-03-23T12:53:18;99021.28;;;25.37;100.00
12991;BME280;6560;57.692;11.958;2023-03-23T12:55:50;99046.50;;;24.35;100.00
12991;BME280;6560;57.692;11.958;2023-03-23T12:58:25;99039.91;;;22.56;100.00
12991;BME280;6560;57.692;11.958;2023-03-23T13:01:03;99016.53;;;21.84;100.00
12991;BME280;6560;57.692;11.958;2023-03-23T13:03:59;99060.47;;;22.45;100.00
12991;BME280;6560;57.692;11.958;2023-03-23T13:09:10;99049.72;;;22.25;100.00
12991;BME280;6560;57.692;11.958;2023-03-23T13:11:38;99049.63;;;23.38;100.00
12991;BME280;6560;57.692;11.958;2023-03-23T13:17:11;99072.06;;;22.09;100.00
12991;BME280;6560;57.692;11.958;2023-03-23T13:28:24;99063.16;;;22.12;100.00
12991;BME280;6560;57.692;11.958;2023-03-23T13:31:15;99098.59;;;21.39;100.00
12991;BME280;6560;57.692;11.958;2023-03-23T13:33:46;99117.13;;;18.86;100.00
12991;BME280;6560;57.692;11.958;2023-03-23T13:36:30;99095.19;;;17.19;100.00
12991;BME280;6560;57.692;11.958;2023-03-23T13:38:58;99134.47;;;17.68;100.00
12991;BME280;6560;57.692;11.958;2023-03-23T13:41:25;99146.00;;;16.90;100.00
12991;BME280;6560;57.692;11.958;2023-03-23T13:43:52;99140.66;;;17.67;100.00
12991;BME280;6560;57.692;11.958;2023-03-23T13:48:49;99125.88;;;17.03;100.00
12991;BME280;6560;57.692;11.958;2023-03-23T13:54:19;99157.78;;;17.76;100.00
12991;BME280;6560;57.692;11.958;2023-03-23T13:56:59;99128.59;;;18.79;100.00
12991;BME280;6560;57.692;11.958;2023-03-23T14:01:52;99124.31;;;17.11;100.00
12991;BME280;6560;57.692;11.958;2023-03-23T14:04:19;99173.75;;;17.76;100.00
12991;BME280;6560;57.692;11.958;2023-03-23T14:06:50;99164.91;;;17.79;100.00
12991;BME280;6560;57.692;11.958;2023-03-23T14:11:55;99175.03;;;17.54;100.00
12991;BME280;6560;57.692;11.958;2023-03-23T14:14:33;99133.41;;;19.01;100.00
12991;BME280;6560;57.692;11.958;2023-03-23T14:17:18;99196.91;;;17.77;100.00
12991;BME280;6560;57.692;11.958;2023-03-23T14:19:50;99187.66;;;18.97;100.00
12991;BME280;6560;57.692;11.958;2023-03-23T14:24:43;99186.53;;;19.99;100.00
12991;BME280;6560;57.692;11.958;2023-03-23T14:27:12;99147.19;;;19.28;100.00
12991;BME280;6560;57.692;11.958;2023-03-23T14:29:38;99188.63;;;21.15;100.00
12991;BME280;6560;57.692;11.958;2023-03-23T14:32:07;99168.06;;;20.23;100.00
12991;BME280;6560;57.692;11.958;2023-03-23T14:34:33;99205.56;;;19.58;100.00
12991;BME280;6560;57.692;11.958;2023-03-23T14:37:03;99219.75;;;19.53;100.00
12991;BME280;6560;57.692;11.958;2023-03-23T14:39:31;99203.50;;;20.04;100.00
12991;BME280;6560;57.692;11.958;2023-03-23T14:42:11;99199.22;;;19.48;100.00
12991;BME280;6560;57.692;11.958;2023-03-23T14:44:44;99202.50;;;19.93;100.00
12991;BME280;6560;57.692;11.958;2023-03-23T14:47:18;99219.59;;;18.89;100.00
12991;BME280;6560;57.692;11.958;2023-03-23T14:49:45;99183.19;;;19.52;100.00